createdAt,value
2022-10-17T00:01:56.711Z,98735.98
2022-10-17T00:04:26.495Z,98736.09
2022-10-17T00:06:57.841Z,98733.98
2022-10-17T00:09:28.184Z,98730.92
2022-10-17T00:12:00.700Z,98728.65
2022-10-17T00:14:30.808Z,98732.76
2022-10-17T00:17:01.486Z,98735.64
2022-10-17T00:19:32.148Z,98739.16
2022-10-17T00:22:03.400Z,98742.99
2022-10-17T00:24:33.098Z,98740.00
2022-10-17T00:27:03.208Z,98740.05
2022-10-17T00:29:33.543Z,98739.74
2022-10-17T00:32:03.646Z,98738.71
2022-10-17T00:34:34.108Z,98738.50
2022-10-17T00:37:05.701Z,98736.77
2022-10-17T00:39:38.029Z,98735.75
2022-10-17T00:42:12.237Z,98731.46
2022-10-17T00:44:44.425Z,98733.10
2022-10-17T00:47:20.749Z,98738.46
2022-10-17T00:49:52.052Z,98740.35
2022-10-17T00:52:25.705Z,98734.78
2022-10-17T00:55:00.764Z,98733.53
2022-10-17T00:57:33.469Z,98736.87
2022-10-17T01:00:08.171Z,98737.80
2022-10-17T01:02:39.277Z,98740.43
2022-10-17T01:05:11.540Z,98742.77
2022-10-17T01:07:43.666Z,98743.47
2022-10-17T01:10:15.617Z,98738.58
2022-10-17T01:13:10.016Z,98735.80
2022-10-17T01:15:58.312Z,98737.38
2022-10-17T01:18:45.941Z,98740.70
2022-10-17T01:21:18.558Z,98739.35
2022-10-17T01:23:53.161Z,98738.19
2022-10-17T01:26:57.257Z,98739.08
2022-10-17T01:30:05.486Z,98743.95
2022-10-17T01:32:48.626Z,98750.18
2022-10-17T01:35:31.305Z,98754.85
2022-10-17T01:38:19.171Z,98760.05
2022-10-17T01:41:15.830Z,98760.95
2022-10-17T01:43:54.718Z,98762.00
2022-10-17T01:46:50.951Z,98763.05
2022-10-17T01:49:27.077Z,98762.91
2022-10-17T01:52:08.469Z,98766.20
2022-10-17T01:54:44.220Z,98765.29
2022-10-17T01:57:28.008Z,98769.05
2022-10-17T02:00:00.473Z,98773.73
2022-10-17T02:02:32.149Z,98772.90
2022-10-17T02:05:05.372Z,98773.91
2022-10-17T02:07:36.129Z,98772.81
2022-10-17T02:10:21.285Z,98777.05
2022-10-17T02:13:11.108Z,98774.83
2022-10-17T02:16:07.215Z,98777.95
2022-10-17T02:18:51.045Z,98782.39
2022-10-17T02:21:29.025Z,98786.26
2022-10-17T02:24:17.834Z,98791.31
2022-10-17T02:27:09.850Z,98786.88
2022-10-17T02:29:59.398Z,98793.09
2022-10-17T02:33:10.260Z,98798.58
2022-10-17T02:35:46.113Z,98800.45
2022-10-17T02:38:19.267Z,98800.23
2022-10-17T02:40:53.479Z,98801.39
2022-10-17T02:43:24.499Z,98800.80
2022-10-17T02:45:54.954Z,98802.40
2022-10-17T02:48:57.163Z,98803.13
2022-10-17T02:51:42.588Z,98804.38
2022-10-17T02:54:22.197Z,98808.46
2022-10-17T02:56:56.263Z,98805.42
2022-10-17T02:59:27.869Z,98804.61
2022-10-17T03:01:57.430Z,98803.95
2022-10-17T03:04:27.305Z,98810.66
2022-10-17T03:06:58.214Z,98807.04
2022-10-17T03:09:28.264Z,98809.13
2022-10-17T03:11:58.234Z,98809.66
2022-10-17T03:14:27.969Z,98812.92
2022-10-17T03:16:57.166Z,98813.11
2022-10-17T03:19:26.669Z,98814.88
2022-10-17T03:21:57.214Z,98815.80
2022-10-17T03:24:27.164Z,98812.75
2022-10-17T03:26:56.841Z,98819.50
2022-10-17T03:29:26.016Z,98820.28
2022-10-17T03:31:56.439Z,98822.25
2022-10-17T03:34:25.671Z,98822.08
2022-10-17T03:36:55.777Z,98824.85
2022-10-17T03:39:26.334Z,98825.42
2022-10-17T03:41:55.941Z,98828.24
2022-10-17T03:44:25.513Z,98827.44
2022-10-17T03:46:55.623Z,98828.19
2022-10-17T03:49:25.242Z,98832.14
2022-10-17T03:51:54.303Z,98831.66
2022-10-17T03:54:24.147Z,98831.36
2022-10-17T03:56:53.663Z,98831.23
2022-10-17T03:59:22.790Z,98835.61
2022-10-17T04:02:00.538Z,98834.67
2022-10-17T04:04:30.343Z,98833.90
2022-10-17T04:06:59.433Z,98839.39
2022-10-17T04:09:29.884Z,98842.46
2022-10-17T04:12:19.043Z,98841.77
2022-10-17T04:14:49.259Z,98841.98
2022-10-17T04:17:18.769Z,98842.27
2022-10-17T04:19:50.191Z,98845.34
2022-10-17T04:22:23.471Z,98844.77
2022-10-17T04:24:55.699Z,98845.69
2022-10-17T04:27:46.052Z,98850.36
2022-10-17T04:30:15.686Z,98849.73
2022-10-17T04:32:44.757Z,98856.37
2022-10-17T04:35:17.051Z,98860.21
2022-10-17T04:37:49.552Z,98861.11
2022-10-17T04:40:21.667Z,98860.49
2022-10-17T04:42:50.975Z,98860.71
2022-10-17T04:45:21.820Z,98862.64
2022-10-17T04:47:53.776Z,98865.92
2022-10-17T04:50:22.869Z,98863.87
2022-10-17T04:53:09.406Z,98864.73
2022-10-17T04:55:40.027Z,98868.16
2022-10-17T04:58:08.787Z,98870.71
2022-10-17T05:00:37.790Z,98870.89
2022-10-17T05:03:22.734Z,98876.90
2022-10-17T05:05:52.173Z,98878.06
2022-10-17T05:08:20.811Z,98882.50
2022-10-17T05:10:49.568Z,98882.61
2022-10-17T05:13:18.095Z,98887.02
2022-10-17T05:15:46.571Z,98888.33
2022-10-17T05:18:15.150Z,98890.64
2022-10-17T05:20:44.169Z,98890.86
2022-10-17T05:23:13.735Z,98895.39
2022-10-17T05:25:43.987Z,98896.10
2022-10-17T05:28:12.982Z,98896.29
2022-10-17T05:30:42.993Z,98896.10
2022-10-17T05:33:11.687Z,98898.84
2022-10-17T05:35:40.472Z,98902.25
2022-10-17T05:38:09.187Z,98904.11
2022-10-17T05:40:39.721Z,98906.06
2022-10-17T05:43:10.023Z,98905.77
2022-10-17T05:45:39.420Z,98910.92
2022-10-17T05:48:09.424Z,98915.45
2022-10-17T05:50:38.012Z,98915.80
2022-10-17T05:53:11.416Z,98922.91
2022-10-17T05:55:46.650Z,98924.77
2022-10-17T05:58:22.083Z,98926.64
2022-10-17T06:01:04.476Z,98932.05
2022-10-17T06:03:34.411Z,98939.39
2022-10-17T06:06:08.699Z,98938.48
2022-10-17T06:08:38.853Z,98936.30
2022-10-17T06:11:10.380Z,98942.84
2022-10-17T06:13:40.150Z,98946.63
2022-10-17T06:16:15.549Z,98952.90
2022-10-17T06:18:44.168Z,98959.32
2022-10-17T06:21:17.728Z,98957.37
2022-10-17T06:23:48.634Z,98957.27
2022-10-17T06:26:47.976Z,98961.90
2022-10-17T06:29:17.792Z,98961.39
2022-10-17T06:31:53.957Z,98964.48
2022-10-17T06:34:22.951Z,98964.04
2022-10-17T06:36:51.767Z,98968.95
2022-10-17T06:39:21.128Z,98970.56
2022-10-17T06:42:02.688Z,98975.83
2022-10-17T06:44:54.542Z,98978.67
2022-10-17T06:47:35.750Z,98979.02
2022-10-17T06:50:12.396Z,98979.46
2022-10-17T06:52:59.965Z,98980.44
2022-10-17T06:55:45.874Z,98981.02
2022-10-17T06:58:21.361Z,98983.11
2022-10-17T07:01:01.007Z,98984.73
2022-10-17T07:03:30.427Z,98988.73
2022-10-17T07:05:59.703Z,98984.55
2022-10-17T07:08:29.092Z,98985.45
2022-10-17T07:10:58.819Z,98987.19
2022-10-17T07:13:28.540Z,98989.37
2022-10-17T07:16:02.058Z,98988.36
2022-10-17T07:18:31.936Z,98986.81
2022-10-17T07:21:01.239Z,98988.10
2022-10-17T07:23:30.241Z,98982.48
2022-10-17T07:26:03.275Z,98987.04
2022-10-17T07:28:31.827Z,98988.19
2022-10-17T07:31:10.296Z,98985.34
2022-10-17T07:33:39.258Z,98986.83
2022-10-17T07:36:08.713Z,98990.69
2022-10-17T07:38:38.118Z,98990.30
2022-10-17T07:41:09.255Z,98989.65
2022-10-17T07:43:38.251Z,98987.47
2022-10-17T07:46:08.804Z,98983.34
2022-10-17T07:48:39.534Z,98977.50
2022-10-17T07:51:10.271Z,98983.53
2022-10-17T07:53:41.792Z,98985.02
2022-10-17T07:56:13.464Z,98990.10
2022-10-17T07:58:42.441Z,98991.69
2022-10-17T08:01:15.662Z,98987.30
2022-10-17T08:03:46.785Z,98989.30
2022-10-17T08:06:15.911Z,98988.51
2022-10-17T08:08:45.094Z,98989.26
2022-10-17T08:11:15.660Z,98992.41
2022-10-17T08:13:44.605Z,98987.48
2022-10-17T08:16:13.934Z,98989.59
2022-10-17T08:18:44.091Z,98986.31
2022-10-17T08:21:13.726Z,98986.70
2022-10-17T08:23:43.239Z,98989.36
2022-10-17T08:26:13.703Z,98980.87
2022-10-17T08:28:42.503Z,98978.66
2022-10-17T08:31:14.823Z,98975.02
2022-10-17T08:33:43.401Z,98976.67
2022-10-17T08:36:15.090Z,98974.87
2022-10-17T08:38:46.951Z,98973.42
2022-10-17T08:41:55.544Z,98972.18
2022-10-17T08:44:36.229Z,98974.55
2022-10-17T08:47:20.171Z,98977.10
2022-10-17T08:49:55.921Z,98974.77
2022-10-17T08:52:33.270Z,98972.48
2022-10-17T08:55:02.099Z,98972.31
2022-10-17T08:57:31.128Z,98972.92
2022-10-17T09:00:00.266Z,98975.88
2022-10-17T09:02:39.112Z,98978.66
2022-10-17T09:05:28.973Z,98977.59
2022-10-17T09:08:03.722Z,98978.39
2022-10-17T09:11:01.701Z,98980.75
2022-10-17T09:13:39.272Z,98975.70
2022-10-17T09:16:31.417Z,98976.69
2022-10-17T09:19:10.731Z,98977.46
2022-10-17T09:21:48.037Z,98982.19
2022-10-17T09:24:39.856Z,98974.02
2022-10-17T09:27:31.360Z,98980.68
2022-10-17T09:30:46.199Z,98978.81
2022-10-17T09:33:34.317Z,98982.13
2022-10-17T09:36:09.626Z,98977.81
2022-10-17T09:38:42.877Z,98979.84
2022-10-17T09:41:46.422Z,98979.77
2022-10-17T09:44:18.495Z,98978.91
2022-10-17T09:47:15.712Z,98977.05
2022-10-17T09:49:47.171Z,98978.52
2022-10-17T09:52:41.209Z,98977.08
2022-10-17T09:55:36.273Z,98978.14
2022-10-17T09:58:06.387Z,98971.80
2022-10-17T10:00:47.400Z,98973.54
2022-10-17T10:03:22.300Z,98972.52
2022-10-17T10:06:06.234Z,98972.37
2022-10-17T10:08:38.104Z,98966.78
2022-10-17T10:11:13.879Z,98964.08
2022-10-17T10:13:43.668Z,98962.05
2022-10-17T10:16:17.551Z,98960.73
2022-10-17T10:18:48.769Z,98957.27
2022-10-17T10:21:27.844Z,98959.95
2022-10-17T10:24:14.990Z,98955.01
2022-10-17T10:26:48.073Z,98954.34
2022-10-17T10:29:34.662Z,98951.21
2022-10-17T10:32:23.792Z,98945.27
2022-10-17T10:34:55.307Z,98942.46
2022-10-17T10:37:29.269Z,98945.98
2022-10-17T10:40:01.329Z,98942.79
2022-10-17T10:42:39.749Z,98939.61
2022-10-17T10:45:35.889Z,98936.46
2022-10-17T10:48:20.272Z,98940.48
2022-10-17T10:50:57.868Z,98941.92
2022-10-17T10:53:26.595Z,98939.08
2022-10-17T10:56:00.421Z,98938.37
2022-10-17T10:58:47.480Z,98935.19
2022-10-17T11:01:30.534Z,98932.11
2022-10-17T11:04:23.799Z,98934.09
2022-10-17T11:06:59.475Z,98928.73
2022-10-17T11:09:33.961Z,98927.89
2022-10-17T11:12:07.019Z,98926.42
2022-10-17T11:14:50.413Z,98929.00
2022-10-17T11:17:35.289Z,98928.63
2022-10-17T11:20:09.681Z,98918.48
2022-10-17T11:23:03.401Z,98915.09
2022-10-17T11:25:31.803Z,98912.19
2022-10-17T11:28:04.846Z,98913.55
2022-10-17T11:30:47.257Z,98910.60
2022-10-17T11:33:40.743Z,98907.74
2022-10-17T11:36:10.832Z,98908.30
2022-10-17T11:39:09.424Z,98913.95
2022-10-17T11:41:40.879Z,98908.84
2022-10-17T11:44:43.384Z,98903.65
2022-10-17T11:47:49.831Z,98904.66
2022-10-17T11:53:17.125Z,98905.10
2022-10-17T11:55:47.532Z,98905.91
2022-10-17T11:58:25.191Z,98903.42
2022-10-17T12:01:12.547Z,98901.59
2022-10-17T12:04:05.160Z,98898.63
2022-10-17T12:07:02.497Z,98897.30
2022-10-17T12:09:50.025Z,98893.59
2022-10-17T12:12:37.183Z,98890.59
2022-10-17T12:15:26.495Z,98886.98
2022-10-17T12:17:58.553Z,98887.17
2022-10-17T12:20:37.770Z,98889.25
2022-10-17T12:23:23.364Z,98886.45
2022-10-17T12:26:01.162Z,98884.77
2022-10-17T12:28:49.856Z,98886.14
2022-10-17T12:31:19.388Z,98886.20
2022-10-17T12:33:57.673Z,98882.52
2022-10-17T12:36:29.592Z,98883.06
2022-10-17T12:39:03.925Z,98886.46
2022-10-17T12:41:38.722Z,98881.52
2022-10-17T12:44:14.265Z,98881.25
2022-10-17T12:46:58.582Z,98879.31
2022-10-17T12:49:56.445Z,98875.91
2022-10-17T12:52:27.413Z,98878.17
2022-10-17T12:55:12.014Z,98878.93
2022-10-17T12:57:48.818Z,98876.07
2022-10-17T13:01:05.149Z,98877.05
2022-10-17T13:03:42.725Z,98875.54
2022-10-17T13:06:22.825Z,98873.86
2022-10-17T13:09:03.568Z,98870.21
2022-10-17T13:11:36.599Z,98869.42
2022-10-17T13:14:13.029Z,98868.51
2022-10-17T13:16:52.701Z,98869.10
2022-10-17T13:19:24.323Z,98873.00
2022-10-17T13:22:06.500Z,98871.20
2022-10-17T13:24:38.803Z,98869.64
2022-10-17T13:27:25.207Z,98875.57
2022-10-17T13:29:56.438Z,98869.79
2022-10-17T13:32:28.149Z,98867.88
2022-10-17T13:35:10.290Z,98869.73
2022-10-17T13:37:41.955Z,98871.98
2022-10-17T13:40:49.664Z,98870.91
2022-10-17T13:43:21.337Z,98867.68
2022-10-17T13:45:55.686Z,98870.50
2022-10-17T13:48:27.012Z,98868.61
2022-10-17T13:51:01.762Z,98866.14
2022-10-17T13:53:37.500Z,98865.69
2022-10-17T13:56:29.251Z,98863.81
2022-10-17T13:59:05.234Z,98866.27
2022-10-17T14:01:33.870Z,98863.85
2022-10-17T14:04:09.418Z,98866.52
2022-10-17T14:06:49.804Z,98863.48
2022-10-17T14:09:30.502Z,98861.92
2022-10-17T14:12:12.953Z,98864.91
2022-10-17T14:15:09.352Z,98855.65
2022-10-17T14:17:38.754Z,98857.61
2022-10-17T14:23:21.559Z,98858.33
2022-10-17T14:25:47.107Z,98859.22
2022-10-17T14:28:17.121Z,98857.93
2022-10-17T14:30:56.724Z,98862.20
2022-10-17T14:33:31.477Z,98856.44
2022-10-17T14:36:03.117Z,98857.99
2022-10-17T14:38:32.094Z,98858.83
2022-10-17T14:44:01.689Z,98855.33
2022-10-17T14:46:30.426Z,98858.77
2022-10-17T14:49:24.309Z,98859.66
2022-10-17T14:52:28.514Z,98856.42
2022-10-17T14:54:58.622Z,98855.70
2022-10-17T14:57:35.211Z,98851.88
2022-10-17T15:00:04.409Z,98851.41
2022-10-17T15:02:33.170Z,98852.48
2022-10-17T15:05:01.785Z,98854.51
2022-10-17T15:07:30.247Z,98854.02
2022-10-17T15:09:58.678Z,98849.59
2022-10-17T15:12:27.262Z,98850.77
2022-10-17T15:14:55.908Z,98851.52
2022-10-17T15:17:30.866Z,98856.05
2022-10-17T15:19:59.534Z,98857.89
2022-10-17T15:22:28.128Z,98853.37
2022-10-17T15:24:57.057Z,98858.36
2022-10-17T15:27:27.131Z,98859.44
2022-10-17T15:29:55.615Z,98859.30
2022-10-17T15:32:24.046Z,98856.25
2022-10-17T15:34:52.518Z,98861.75
2022-10-17T15:37:23.852Z,98862.84
2022-10-17T16:08:23.803Z,98879.23
2022-10-17T16:10:53.356Z,98883.03
2022-10-17T16:13:24.486Z,98891.02
2022-10-17T16:15:52.990Z,98891.95
2022-10-17T16:18:21.556Z,98889.75
2022-10-17T16:20:50.625Z,98889.48
2022-10-17T16:23:19.052Z,98889.06
2022-10-17T16:25:47.514Z,98894.64
2022-10-17T16:28:15.887Z,98897.54
2022-10-17T16:30:46.427Z,98899.80
2022-10-17T16:33:15.221Z,98899.99
2022-10-17T16:35:43.754Z,98905.29
2022-10-17T16:38:12.107Z,98906.75
2022-10-17T16:40:41.258Z,98908.89
2022-10-17T16:43:13.443Z,98908.35
2022-10-17T16:45:42.026Z,98910.04
2022-10-17T16:48:11.002Z,98911.06
2022-10-17T16:50:40.840Z,98912.30
2022-10-17T16:53:09.403Z,98915.30
2022-10-17T16:55:37.755Z,98917.54
2022-10-17T16:58:06.256Z,98918.34
2022-10-17T17:00:34.929Z,98918.16
2022-10-17T17:03:03.310Z,98917.18
2022-10-17T17:05:31.741Z,98921.59
2022-10-17T17:08:01.212Z,98926.11
2022-10-17T17:10:29.795Z,98923.52
2022-10-17T17:12:58.514Z,98924.57
2022-10-17T17:15:26.805Z,98926.16
2022-10-17T17:17:55.985Z,98929.84
2022-10-17T17:20:24.732Z,98930.19
2022-10-17T17:22:53.166Z,98928.34
2022-10-17T17:25:22.729Z,98929.37
2022-10-17T17:27:51.053Z,98927.97
2022-10-17T17:30:19.528Z,98931.04
2022-10-17T17:32:48.010Z,98933.54
2022-10-17T17:35:16.462Z,98934.48
2022-10-17T17:37:44.846Z,98934.48
2022-10-17T17:40:13.200Z,98937.91
2022-10-17T17:42:41.582Z,98934.82
2022-10-17T17:45:10.355Z,98935.69
2022-10-17T17:47:38.747Z,98936.98
2022-10-17T17:50:07.397Z,98939.63
2022-10-17T17:52:35.833Z,98940.25
2022-10-17T17:55:04.504Z,98938.40
2022-10-17T17:57:32.778Z,98935.43
2022-10-17T18:00:01.198Z,98937.01
2022-10-17T18:02:32.850Z,98932.85
2022-10-17T18:05:01.860Z,98932.73
2022-10-17T18:07:30.724Z,98933.85
2022-10-17T18:09:59.234Z,98933.27
2022-10-17T18:12:27.802Z,98936.67
2022-10-17T18:14:56.481Z,98933.36
2022-10-17T18:17:24.921Z,98934.51
2022-10-17T18:19:53.275Z,98934.69
2022-10-17T18:22:23.321Z,98938.98
2022-10-17T18:24:51.547Z,98937.23
2022-10-17T18:27:19.965Z,98936.27
2022-10-17T18:29:48.977Z,98934.76
2022-10-17T18:32:17.550Z,98936.94
2022-10-17T18:34:46.026Z,98938.67
2022-10-17T18:37:14.403Z,98939.06
2022-10-17T18:39:42.779Z,98938.48
2022-10-17T18:42:12.210Z,98939.81
2022-10-17T18:44:40.631Z,98938.31
2022-10-17T18:47:09.142Z,98938.36
2022-10-17T18:49:37.624Z,98937.39
2022-10-17T18:52:06.210Z,98935.36
2022-10-17T18:54:35.200Z,98938.98
2022-10-17T18:57:03.786Z,98942.45
2022-10-17T18:59:32.686Z,98943.51
2022-10-17T19:02:01.228Z,98945.12
2022-10-17T19:04:30.012Z,98945.95
2022-10-17T19:06:58.375Z,98946.11
2022-10-17T19:09:27.126Z,98947.10
2022-10-17T19:11:56.840Z,98950.89
2022-10-17T19:14:26.534Z,98947.03
2022-10-17T19:16:55.524Z,98951.38
2022-10-17T19:19:25.817Z,98949.09
2022-10-17T19:21:54.412Z,98949.14
2022-10-17T19:24:28.196Z,98943.65
2022-10-17T19:27:02.972Z,98946.98
2022-10-17T19:29:32.368Z,98947.48
2022-10-17T19:32:02.816Z,98949.11
2022-10-17T19:34:31.308Z,98951.32
2022-10-17T19:37:00.006Z,98955.05
2022-10-17T19:39:28.487Z,98959.84
2022-10-17T19:41:57.073Z,98961.15
2022-10-17T19:44:26.730Z,98961.27
2022-10-17T19:46:57.097Z,98963.20
2022-10-17T19:49:25.746Z,98964.70
2022-10-17T19:51:54.199Z,98964.56
2022-10-17T19:54:22.722Z,98966.27
2022-10-17T19:56:51.081Z,98968.83
2022-10-17T19:59:19.715Z,98971.84
2022-10-17T20:01:48.446Z,98968.80
2022-10-17T20:04:16.934Z,98963.90
2022-10-17T20:06:45.309Z,98965.90
2022-10-17T20:09:17.006Z,98962.02
2022-10-17T20:11:46.495Z,98959.69
2022-10-17T20:14:15.061Z,98959.91
2022-10-17T20:16:45.123Z,98962.13
2022-10-17T20:19:13.923Z,98962.19
2022-10-17T20:21:43.209Z,98966.94
2022-10-17T20:24:15.979Z,98965.02
2022-10-17T20:26:45.403Z,98963.43
2022-10-17T20:29:17.875Z,98969.98
2022-10-17T20:31:47.458Z,98964.21
2022-10-17T20:34:18.065Z,98962.25
2022-10-17T20:36:47.793Z,98960.98
2022-10-17T20:39:18.038Z,98961.67
2022-10-17T20:41:47.084Z,98959.20
2022-10-17T20:44:16.137Z,98958.37
2022-10-17T20:47:00.635Z,98959.30
2022-10-17T20:49:31.924Z,98956.52
2022-10-17T20:52:01.339Z,98953.91
2022-10-17T20:54:30.236Z,98953.59
2022-10-17T20:57:02.439Z,98959.00
2022-10-17T20:59:36.225Z,98961.57
2022-10-17T21:02:05.715Z,98960.14
2022-10-17T21:04:45.817Z,98957.31
2022-10-17T21:07:15.552Z,98959.33
2022-10-17T21:09:44.715Z,98959.16
2022-10-17T21:12:18.177Z,98961.52
2022-10-17T21:14:54.897Z,98961.60
2022-10-17T21:17:24.024Z,98960.09
2022-10-17T21:19:52.895Z,98961.17
2022-10-17T21:22:21.912Z,98960.52
2022-10-17T21:24:50.871Z,98959.73
2022-10-17T21:27:19.988Z,98957.95
2022-10-17T21:29:49.061Z,98960.38
2022-10-17T21:32:31.977Z,98963.06
2022-10-17T21:35:07.544Z,98963.48
2022-10-17T21:37:36.312Z,98960.55
2022-10-17T21:40:06.003Z,98960.95
2022-10-17T21:42:35.244Z,98960.33
2022-10-17T21:45:10.691Z,98959.14
2022-10-17T21:48:11.130Z,98958.73
2022-10-17T21:50:33.871Z,98959.66
2022-10-17T21:53:02.783Z,98958.47
2022-10-17T21:55:31.451Z,98960.30
2022-10-17T21:58:00.383Z,98955.89
2022-10-17T22:00:29.123Z,98954.73
2022-10-17T22:02:58.021Z,98950.84
2022-10-17T22:05:26.868Z,98948.83
2022-10-17T22:07:55.665Z,98942.25
2022-10-17T22:10:24.501Z,98943.99
2022-10-17T22:12:53.398Z,98943.30
2022-10-17T22:15:22.322Z,98945.13
2022-10-17T22:17:51.102Z,98945.61
2022-10-17T22:20:20.001Z,98944.71
2022-10-17T22:22:49.325Z,98945.56
2022-10-17T22:25:18.135Z,98941.88
2022-10-17T22:27:48.803Z,98946.89
2022-10-17T22:30:19.076Z,98943.61
2022-10-17T22:32:48.620Z,98943.57
2022-10-17T22:35:18.536Z,98943.20
2022-10-17T22:37:47.762Z,98940.80
2022-10-17T22:40:16.589Z,98947.52
2022-10-17T22:42:45.570Z,98948.35
2022-10-17T22:45:15.970Z,98946.93
2022-10-17T22:47:45.176Z,98950.64
2022-10-17T22:50:15.275Z,98946.73
2022-10-17T22:52:44.371Z,98944.15
2022-10-17T22:55:14.202Z,98945.52
2022-10-17T22:57:43.668Z,98942.03
2022-10-17T23:00:13.886Z,98940.11
2022-10-17T23:02:44.612Z,98942.84
2022-10-17T23:05:14.918Z,98942.41
2022-10-17T23:07:44.239Z,98939.58
2022-10-17T23:10:14.554Z,98936.77
2022-10-17T23:12:44.223Z,98933.69
2022-10-17T23:15:13.274Z,98931.16
2022-10-17T23:17:43.138Z,98932.04
2022-10-17T23:20:13.809Z,98930.35
2022-10-17T23:22:43.745Z,98928.63
2022-10-17T23:25:13.137Z,98930.30
2022-10-17T23:27:43.690Z,98932.08
2022-10-17T23:30:15.182Z,98932.81
2022-10-17T23:32:46.413Z,98935.23
2022-10-17T23:35:15.695Z,98932.85
2022-10-17T23:37:45.453Z,98930.55
2022-10-17T23:40:15.417Z,98925.64
2022-10-17T23:42:45.795Z,98923.78
2022-10-17T23:45:15.688Z,98921.30
2022-10-17T23:47:44.922Z,98918.80
2022-10-17T23:50:14.482Z,98914.89
2022-10-17T23:52:45.119Z,98912.41
2022-10-17T23:55:15.036Z,98909.95
2022-10-17T23:57:44.363Z,98910.81
